sensor_id;sensor_type;location;lat;lon;timestamp;pressure;altitude;pressure_sealevel;temperature;humidity
34925;BME280;21130;51.728;8.748;2023-01-29T00:00:32;101786.69;;;-5.03;100.00
34925;BME280;21130;51.728;8.748;2023-01-29T00:02:59;101796.00;;;-5.07;100.00
34925;BME280;21130;51.728;8.748;2023-01-29T00:05:25;101803.47;;;-4.97;100.00
34925;BME280;21130;51.728;8.748;2023-01-29T00:07:52;101804.78;;;-5.03;100.00
34925;BME280;21130;51.728;8.748;2023-01-29T00:10:19;101798.19;;;-5.12;100.00
34925;BME280;21130;51.728;8.748;2023-01-29T00:12:46;101805.16;;;-5.21;100.00
34925;BME280;21130;51.728;8.748;2023-01-29T00:15:12;101805.47;;;-5.25;100.00
34925;BME280;21130;51.728;8.748;2023-01-29T00:17:39;101798.00;;;-5.34;100.00
34925;BME280;21130;51.728;8.748;2023-01-29T00:20:05;101796.38;;;-5.37;100.00
34925;BME280;21130;51.728;8.748;2023-01-29T00:22:32;101796.19;;;-5.47;100.00
34925;BME280;21130;51.728;8.748;2023-01-29T00:24:59;101791.97;;;-5.51;100.00
34925;BME280;21130;51.728;8.748;2023-01-29T00:27:26;101786.97;;;-5.57;100.00
34925;BME280;21130;51.728;8.748;2023-01-29T00:29:53;101788.72;;;-5.56;100.00
34925;BME280;21130;51.728;8.748;2023-01-29T00:32:47;101787.53;;;-5.65;100.00
34925;BME280;21130;51.728;8.748;2023-01-29T00:35:13;101782.47;;;-5.69;100.00
34925;BME280;21130;51.728;8.748;2023-01-29T00:37:40;101784.50;;;-5.73;100.00
34925;BME280;21130;51.728;8.748;2023-01-29T00:40:08;101781.25;;;-5.78;100.00
34925;BME280;21130;51.728;8.748;2023-01-29T00:42:34;101775.94;;;-5.79;100.00
34925;BME280;21130;51.728;8.748;2023-01-29T00:45:18;101769.91;;;-5.83;100.00
34925;BME280;21130;51.728;8.748;2023-01-29T00:47:46;101766.56;;;-5.87;100.00
34925;BME280;21130;51.728;8.748;2023-01-29T00:50:13;101766.66;;;-5.88;100.00
34925;BME280;21130;51.728;8.748;2023-01-29T00:52:39;101763.09;;;-5.89;100.00
34925;BME280;21130;51.728;8.748;2023-01-29T00:55:07;101766.25;;;-5.95;100.00
34925;BME280;21130;51.728;8.748;2023-01-29T00:57:35;101767.53;;;-6.00;100.00
34925;BME280;21130;51.728;8.748;2023-01-29T01:00:03;101768.63;;;-6.03;100.00
34925;BME280;21130;51.728;8.748;2023-01-29T01:02:30;101776.94;;;-6.06;100.00
34925;BME280;21130;51.728;8.748;2023-01-29T01:05:16;101790.69;;;-6.09;100.00
34925;BME280;21130;51.728;8.748;2023-01-29T01:07:43;101785.38;;;-6.11;100.00
34925;BME280;21130;51.728;8.748;2023-01-29T01:10:13;101782.75;;;-6.12;100.00
34925;BME280;21130;51.728;8.748;2023-01-29T01:12:45;101792.63;;;-6.11;100.00
34925;BME280;21130;51.728;8.748;2023-01-29T01:15:11;101794.13;;;-6.07;100.00
34925;BME280;21130;51.728;8.748;2023-01-29T01:17:38;101792.94;;;-6.03;100.00
34925;BME280;21130;51.728;8.748;2023-01-29T01:20:05;101800.06;;;-6.02;100.00
34925;BME280;21130;51.728;8.748;2023-01-29T01:22:33;101794.66;;;-6.02;100.00
34925;BME280;21130;51.728;8.748;2023-01-29T01:25:20;101791.88;;;-6.00;100.00
34925;BME280;21130;51.728;8.748;2023-01-29T01:27:47;101792.94;;;-6.03;100.00
34925;BME280;21130;51.728;8.748;2023-01-29T01:30:14;101795.75;;;-6.04;100.00
34925;BME280;21130;51.728;8.748;2023-01-29T01:32:42;101794.13;;;-6.07;100.00
34925;BME280;21130;51.728;8.748;2023-01-29T01:35:09;101783.31;;;-6.07;100.00
34925;BME280;21130;51.728;8.748;2023-01-29T01:37:37;101777.03;;;-6.07;100.00
34925;BME280;21130;51.728;8.748;2023-01-29T01:40:24;101775.88;;;-6.03;100.00
34925;BME280;21130;51.728;8.748;2023-01-29T01:42:52;101772.09;;;-6.01;100.00
34925;BME280;21130;51.728;8.748;2023-01-29T01:45:23;101753.94;;;-5.99;100.00
34925;BME280;21130;51.728;8.748;2023-01-29T01:47:53;101757.41;;;-5.97;100.00
34925;BME280;21130;51.728;8.748;2023-01-29T01:50:24;101750.03;;;-5.95;100.00
34925;BME280;21130;51.728;8.748;2023-01-29T01:52:57;101749.91;;;-5.93;100.00
34925;BME280;21130;51.728;8.748;2023-01-29T01:55:26;101739.00;;;-5.92;100.00
34925;BME280;21130;51.728;8.748;2023-01-29T01:57:56;101738.09;;;-5.92;100.00
34925;BME280;21130;51.728;8.748;2023-01-29T02:00:25;101735.06;;;-5.88;100.00
34925;BME280;21130;51.728;8.748;2023-01-29T02:02:53;101747.19;;;-5.80;100.00
34925;BME280;21130;51.728;8.748;2023-01-29T02:05:38;101736.38;;;-5.80;100.00
34925;BME280;21130;51.728;8.748;2023-01-29T02:08:28;101746.44;;;-5.82;100.00
34925;BME280;21130;51.728;8.748;2023-01-29T02:11:13;101739.19;;;-5.82;100.00
34925;BME280;21130;51.728;8.748;2023-01-29T02:13:39;101750.88;;;-5.81;100.00
34925;BME280;21130;51.728;8.748;2023-01-29T02:16:06;101750.88;;;-5.81;100.00
34925;BME280;21130;51.728;8.748;2023-01-29T02:18:33;101750.97;;;-5.83;100.00
34925;BME280;21130;51.728;8.748;2023-01-29T02:21:16;101745.47;;;-5.81;100.00
34925;BME280;21130;51.728;8.748;2023-01-29T02:24:10;101745.56;;;-5.83;100.00
34925;BME280;21130;51.728;8.748;2023-01-29T02:27:04;101750.00;;;-5.82;100.00
34925;BME280;21130;51.728;8.748;2023-01-29T02:29:39;101764.19;;;-5.78;100.00
34925;BME280;21130;51.728;8.748;2023-01-29T02:32:16;101773.47;;;-5.70;100.00
34925;BME280;21130;51.728;8.748;2023-01-29T02:34:51;101771.84;;;-5.72;100.00
34925;BME280;21130;51.728;8.748;2023-01-29T02:37:45;101766.44;;;-5.72;100.00
34925;BME280;21130;51.728;8.748;2023-01-29T02:40:22;101769.28;;;-5.74;100.00
34925;BME280;21130;51.728;8.748;2023-01-29T02:42:56;101758.31;;;-5.72;100.00
34925;BME280;21130;51.728;8.748;2023-01-29T02:45:31;101755.84;;;-5.75;100.00
34925;BME280;21130;51.728;8.748;2023-01-29T02:48:01;101747.81;;;-5.77;100.00
34925;BME280;21130;51.728;8.748;2023-01-29T02:50:30;101758.78;;;-5.78;100.00
34925;BME280;21130;51.728;8.748;2023-01-29T02:53:01;101745.47;;;-5.81;100.00
34925;BME280;21130;51.728;8.748;2023-01-29T02:55:35;101758.44;;;-5.87;100.00
34925;BME280;21130;51.728;8.748;2023-01-29T02:58:08;101763.63;;;-5.83;100.00
34925;BME280;21130;51.728;8.748;2023-01-29T03:00:40;101770.13;;;-5.86;100.00
34925;BME280;21130;51.728;8.748;2023-01-29T03:03:12;101780.72;;;-5.83;100.00
34925;BME280;21130;51.728;8.748;2023-01-29T03:05:44;101785.03;;;-5.80;100.00
34925;BME280;21130;51.728;8.748;2023-01-29T03:08:24;101779.41;;;-5.77;100.00
34925;BME280;21130;51.728;8.748;2023-01-29T03:11:03;101777.16;;;-5.71;100.00
34925;BME280;21130;51.728;8.748;2023-01-29T03:13:35;101779.31;;;-5.63;100.00
34925;BME280;21130;51.728;8.748;2023-01-29T03:16:06;101781.47;;;-5.68;100.00
34925;BME280;21130;51.728;8.748;2023-01-29T03:18:36;101787.75;;;-5.68;100.00
34925;BME280;21130;51.728;8.748;2023-01-29T03:21:12;101790.34;;;-5.66;100.00
34925;BME280;21130;51.728;8.748;2023-01-29T03:23:59;101781.16;;;-5.63;100.00
34925;BME280;21130;51.728;8.748;2023-01-29T03:26:43;101781.03;;;-5.62;100.00
34925;BME280;21130;51.728;8.748;2023-01-29T03:29:29;101786.34;;;-5.60;100.00
34925;BME280;21130;51.728;8.748;2023-01-29T03:32:17;101773.25;;;-5.54;100.00
34925;BME280;21130;51.728;8.748;2023-01-29T03:34:48;101764.16;;;-5.53;100.00
34925;BME280;21130;51.728;8.748;2023-01-29T03:37:20;101766.09;;;-5.55;100.00
34925;BME280;21130;51.728;8.748;2023-01-29T03:39:47;101759.75;;;-5.54;100.00
34925;BME280;21130;51.728;8.748;2023-01-29T03:42:18;101765.16;;;-5.54;100.00
34925;BME280;21130;51.728;8.748;2023-01-29T03:44:53;101757.03;;;-5.54;100.00
34925;BME280;21130;51.728;8.748;2023-01-29T03:47:31;101765.16;;;-5.54;100.00
34925;BME280;21130;51.728;8.748;2023-01-29T03:50:06;101757.03;;;-5.54;100.00
34925;BME280;21130;51.728;8.748;2023-01-29T03:52:42;101756.91;;;-5.52;100.00
34925;BME280;21130;51.728;8.748;2023-01-29T03:55:14;101752.91;;;-5.47;100.00
34925;BME280;21130;51.728;8.748;2023-01-29T03:57:45;101749.31;;;-5.47;100.00
34925;BME280;21130;51.728;8.748;2023-01-29T04:00:20;101748.47;;;-5.48;100.00
34925;BME280;21130;51.728;8.748;2023-01-29T04:02:55;101750.31;;;-5.48;100.00
34925;BME280;21130;51.728;8.748;2023-01-29T04:05:28;101747.59;;;-5.48;100.00
34925;BME280;21130;51.728;8.748;2023-01-29T04:08:02;101748.47;;;-5.48;100.00
34925;BME280;21130;51.728;8.748;2023-01-29T04:10:32;101746.63;;;-5.47;100.00
34925;BME280;21130;51.728;8.748;2023-01-29T04:13:04;101740.25;;;-5.46;100.00
34925;BME280;21130;51.728;8.748;2023-01-29T04:15:34;101743.72;;;-5.44;100.00
34925;BME280;21130;51.728;8.748;2023-01-29T04:18:03;101739.78;;;-5.40;100.00
34925;BME280;21130;51.728;8.748;2023-01-29T04:20:29;101740.31;;;-5.35;100.00
34925;BME280;21130;51.728;8.748;2023-01-29T04:22:56;101741.72;;;-5.29;100.00
34925;BME280;21130;51.728;8.748;2023-01-29T04:25:25;101726.56;;;-5.19;100.00
34925;BME280;21130;51.728;8.748;2023-01-29T04:28:00;101728.03;;;-5.15;100.00
34925;BME280;21130;51.728;8.748;2023-01-29T04:30:38;101726.63;;;-5.08;100.00
34925;BME280;21130;51.728;8.748;2023-01-29T04:33:20;101723.56;;;-5.03;100.00
34925;BME280;21130;51.728;8.748;2023-01-29T04:36:02;101713.16;;;-4.96;100.00
34925;BME280;21130;51.728;8.748;2023-01-29T04:38:42;101715.16;;;-4.87;100.00
34925;BME280;21130;51.728;8.748;2023-01-29T04:41:15;101710.16;;;-4.81;100.00
34925;BME280;21130;51.728;8.748;2023-01-29T04:43:57;101702.56;;;-4.75;100.00
34925;BME280;21130;51.728;8.748;2023-01-29T04:46:30;101690.44;;;-4.59;100.00
34925;BME280;21130;51.728;8.748;2023-01-29T04:49:11;101671.59;;;-4.60;100.00
34925;BME280;21130;51.728;8.748;2023-01-29T04:51:48;101673.44;;;-4.61;100.00
34925;BME280;21130;51.728;8.748;2023-01-29T04:54:21;101663.22;;;-4.57;100.00
34925;BME280;21130;51.728;8.748;2023-01-29T04:56:56;101661.88;;;-4.51;100.00
34925;BME280;21130;51.728;8.748;2023-01-29T04:59:29;101649.13;;;-4.38;100.00
34925;BME280;21130;51.728;8.748;2023-01-29T05:01:58;101636.91;;;-4.44;100.00
34925;BME280;21130;51.728;8.748;2023-01-29T05:04:28;101638.63;;;-4.43;100.00
34925;BME280;21130;51.728;8.748;2023-01-29T05:06:57;101623.22;;;-4.42;100.00
34925;BME280;21130;51.728;8.748;2023-01-29T05:09:26;101627.44;;;-4.38;100.00
34925;BME280;21130;51.728;8.748;2023-01-29T05:11:53;101621.78;;;-4.35;100.00
34925;BME280;21130;51.728;8.748;2023-01-29T05:14:23;101619.94;;;-4.23;100.00
34925;BME280;21130;51.728;8.748;2023-01-29T05:16:51;101618.34;;;-4.26;100.00
34925;BME280;21130;51.728;8.748;2023-01-29T05:19:19;101616.38;;;-4.24;100.00
34925;BME280;21130;51.728;8.748;2023-01-29T05:21:48;101609.47;;;-4.17;100.00
34925;BME280;21130;51.728;8.748;2023-01-29T05:24:16;101615.38;;;-4.12;100.00
34925;BME280;21130;51.728;8.748;2023-01-29T05:26:46;101615.88;;;-4.06;100.00
34925;BME280;21130;51.728;8.748;2023-01-29T05:29:30;101624.00;;;-4.06;100.00
34925;BME280;21130;51.728;8.748;2023-01-29T05:31:57;101622.78;;;-4.02;100.00
34925;BME280;21130;51.728;8.748;2023-01-29T05:34:25;101627.47;;;-3.93;100.00
34925;BME280;21130;51.728;8.748;2023-01-29T05:36:52;101635.84;;;-3.85;100.00
34925;BME280;21130;51.728;8.748;2023-01-29T05:39:19;101636.09;;;-3.77;100.00
34925;BME280;21130;51.728;8.748;2023-01-29T05:41:46;101628.22;;;-3.80;100.00
34925;BME280;21130;51.728;8.748;2023-01-29T05:44:12;101641.50;;;-3.77;100.00
34925;BME280;21130;51.728;8.748;2023-01-29T05:46:39;101639.66;;;-3.76;100.00
34925;BME280;21130;51.728;8.748;2023-01-29T05:49:05;101631.03;;;-3.70;100.00
34925;BME280;21130;51.728;8.748;2023-01-29T05:51:32;101642.50;;;-3.66;100.00
34925;BME280;21130;51.728;8.748;2023-01-29T05:53:59;101645.94;;;-3.64;100.00
34925;BME280;21130;51.728;8.748;2023-01-29T05:56:26;101652.25;;;-3.53;100.00
34925;BME280;21130;51.728;8.748;2023-01-29T05:58:52;101664.19;;;-3.44;100.00
34925;BME280;21130;51.728;8.748;2023-01-29T06:01:20;101661.72;;;-3.47;100.00
34925;BME280;21130;51.728;8.748;2023-01-29T06:03:47;101668.25;;;-3.38;100.00
34925;BME280;21130;51.728;8.748;2023-01-29T06:06:14;101655.66;;;-3.39;100.00
34925;BME280;21130;51.728;8.748;2023-01-29T06:08:41;101675.66;;;-3.40;100.00
34925;BME280;21130;51.728;8.748;2023-01-29T06:11:11;101679.22;;;-3.40;100.00
34925;BME280;21130;51.728;8.748;2023-01-29T06:13:37;101688.59;;;-3.33;100.00
34925;BME280;21130;51.728;8.748;2023-01-29T06:16:05;101692.91;;;-3.30;100.00
34925;BME280;21130;51.728;8.748;2023-01-29T06:18:32;101692.19;;;-3.32;100.00
34925;BME280;21130;51.728;8.748;2023-01-29T06:21:00;101706.34;;;-3.29;100.00
34925;BME280;21130;51.728;8.748;2023-01-29T06:23:26;101687.59;;;-3.32;100.00
34925;BME280;21130;51.728;8.748;2023-01-29T06:25:53;101688.84;;;-3.24;100.00
34925;BME280;21130;51.728;8.748;2023-01-29T06:28:25;101676.75;;;-3.32;100.00
34925;BME280;21130;51.728;8.748;2023-01-29T06:30:51;101670.56;;;-3.34;100.00
34925;BME280;21130;51.728;8.748;2023-01-29T06:33:18;101674.03;;;-3.32;100.00
34925;BME280;21130;51.728;8.748;2023-01-29T06:35:46;101684.63;;;-3.29;100.00
34925;BME280;21130;51.728;8.748;2023-01-29T06:38:13;101683.03;;;-3.31;100.00
34925;BME280;21130;51.728;8.748;2023-01-29T06:40:39;101684.88;;;-3.32;100.00
34925;BME280;21130;51.728;8.748;2023-01-29T06:43:05;101692.91;;;-3.30;100.00
34925;BME280;21130;51.728;8.748;2023-01-29T06:45:33;101693.53;;;-3.27;100.00
34925;BME280;21130;51.728;8.748;2023-01-29T06:47:59;101691.91;;;-3.29;100.00
34925;BME280;21130;51.728;8.748;2023-01-29T06:50:26;101720.06;;;-3.30;100.00
34925;BME280;21130;51.728;8.748;2023-01-29T06:52:52;101707.25;;;-3.28;100.00
34925;BME280;21130;51.728;8.748;2023-01-29T06:55:19;101703.41;;;-3.26;100.00
34925;BME280;21130;51.728;8.748;2023-01-29T06:57:45;101702.66;;;-3.28;100.00
34925;BME280;21130;51.728;8.748;2023-01-29T07:00:12;101685.09;;;-3.12;100.00
34925;BME280;21130;51.728;8.748;2023-01-29T07:02:40;101690.03;;;-3.06;100.00
34925;BME280;21130;51.728;8.748;2023-01-29T07:05:07;101692.88;;;-3.08;100.00
34925;BME280;21130;51.728;8.748;2023-01-29T07:07:34;101698.41;;;-2.98;100.00
34925;BME280;21130;51.728;8.748;2023-01-29T07:10:01;101698.31;;;-3.08;100.00
34925;BME280;21130;51.728;8.748;2023-01-29T07:12:28;101694.97;;;-3.11;100.00
34925;BME280;21130;51.728;8.748;2023-01-29T07:14:54;101690.53;;;-3.12;100.00
34925;BME280;21130;51.728;8.748;2023-01-29T07:17:22;101688.81;;;-3.13;100.00
34925;BME280;21130;51.728;8.748;2023-01-29T07:19:50;101684.69;;;-2.96;100.00
34925;BME280;21130;51.728;8.748;2023-01-29T07:22:16;101665.94;;;-2.99;100.00
34925;BME280;21130;51.728;8.748;2023-01-29T07:24:43;101672.38;;;-3.00;100.00
34925;BME280;21130;51.728;8.748;2023-01-29T07:27:09;101676.22;;;-3.03;100.00
34925;BME280;21130;51.728;8.748;2023-01-29T07:29:35;101688.66;;;-3.00;100.00
34925;BME280;21130;51.728;8.748;2023-01-29T07:32:02;101684.09;;;-3.00;100.00
34925;BME280;21130;51.728;8.748;2023-01-29T07:34:30;101679.25;;;-2.96;100.00
34925;BME280;21130;51.728;8.748;2023-01-29T07:36:58;101678.88;;;-2.92;100.00
34925;BME280;21130;51.728;8.748;2023-01-29T07:39:24;101692.19;;;-2.89;100.00
34925;BME280;21130;51.728;8.748;2023-01-29T07:41:51;101696.78;;;-2.89;100.00
34925;BME280;21130;51.728;8.748;2023-01-29T07:44:17;101694.44;;;-2.94;100.00
34925;BME280;21130;51.728;8.748;2023-01-29T07:46:43;101690.56;;;-2.80;100.00
34925;BME280;21130;51.728;8.748;2023-01-29T07:49:10;101684.78;;;-2.87;100.00
34925;BME280;21130;51.728;8.748;2023-01-29T07:51:36;101678.75;;;-2.90;100.00
34925;BME280;21130;51.728;8.748;2023-01-29T07:54:04;101679.34;;;-2.87;100.00
34925;BME280;21130;51.728;8.748;2023-01-29T07:56:31;101671.91;;;-2.73;100.00
34925;BME280;21130;51.728;8.748;2023-01-29T07:58:57;101663.63;;;-2.72;100.00
34925;BME280;21130;51.728;8.748;2023-01-29T08:01:24;101664.22;;;-2.68;100.00
34925;BME280;21130;51.728;8.748;2023-01-29T08:03:50;101666.53;;;-2.64;100.00
34925;BME280;21130;51.728;8.748;2023-01-29T08:06:17;101673.09;;;-2.66;100.00
34925;BME280;21130;51.728;8.748;2023-01-29T08:08:43;101680.94;;;-2.73;100.00
34925;BME280;21130;51.728;8.748;2023-01-29T08:11:11;101668.41;;;-2.64;100.00
34925;BME280;21130;51.728;8.748;2023-01-29T08:13:37;101658.34;;;-2.52;100.00
34925;BME280;21130;51.728;8.748;2023-01-29T08:16:04;101651.66;;;-2.48;100.00
34925;BME280;21130;51.728;8.748;2023-01-29T08:18:31;101639.66;;;-2.46;100.00
34925;BME280;21130;51.728;8.748;2023-01-29T08:20:59;101644.47;;;-2.49;100.00
34925;BME280;21130;51.728;8.748;2023-01-29T08:23:26;101645.69;;;-2.42;100.00
34925;BME280;21130;51.728;8.748;2023-01-29T08:25:52;101656.16;;;-2.37;100.00
34925;BME280;21130;51.728;8.748;2023-01-29T08:28:20;101649.59;;;-2.35;100.00
34925;BME280;21130;51.728;8.748;2023-01-29T08:30:46;101635.47;;;-2.29;100.00
34925;BME280;21130;51.728;8.748;2023-01-29T08:33:13;101620.06;;;-2.19;100.00
34925;BME280;21130;51.728;8.748;2023-01-29T08:35:39;101618.00;;;-2.26;100.00
34925;BME280;21130;51.728;8.748;2023-01-29T08:38:06;101604.75;;;-2.20;100.00
34925;BME280;21130;51.728;8.748;2023-01-29T08:40:33;101600.78;;;-2.15;100.00
34925;BME280;21130;51.728;8.748;2023-01-29T08:43:01;101602.09;;;-2.10;100.00
34925;BME280;21130;51.728;8.748;2023-01-29T08:45:29;101603.56;;;-1.96;100.00
34925;BME280;21130;51.728;8.748;2023-01-29T08:47:56;101595.00;;;-1.91;100.00
34925;BME280;21130;51.728;8.748;2023-01-29T08:50:22;101596.06;;;-1.83;100.00
34925;BME280;21130;51.728;8.748;2023-01-29T08:52:49;101597.19;;;-1.76;100.00
34925;BME280;21130;51.728;8.748;2023-01-29T08:55:15;101597.84;;;-1.62;100.00
34925;BME280;21130;51.728;8.748;2023-01-29T08:57:42;101590.25;;;-1.59;100.00
34925;BME280;21130;51.728;8.748;2023-01-29T09:00:09;101591.09;;;-1.58;100.00
34925;BME280;21130;51.728;8.748;2023-01-29T09:02:37;101598.41;;;-1.59;100.00
34925;BME280;21130;51.728;8.748;2023-01-29T09:05:04;101594.84;;;-1.59;100.00
34925;BME280;21130;51.728;8.748;2023-01-29T09:07:32;101593.13;;;-1.60;100.00
34925;BME280;21130;51.728;8.748;2023-01-29T09:09:58;101593.25;;;-1.62;100.00
34925;BME280;21130;51.728;8.748;2023-01-29T09:12:25;101593.25;;;-1.62;100.00
34925;BME280;21130;51.728;8.748;2023-01-29T09:14:51;101587.53;;;-1.59;100.00
34925;BME280;21130;51.728;8.748;2023-01-29T09:17:18;101582.81;;;-1.57;100.00
34925;BME280;21130;51.728;8.748;2023-01-29T09:19:47;101578.66;;;-1.51;100.00
34925;BME280;21130;51.728;8.748;2023-01-29T09:22:16;101568.63;;;-1.50;100.00
34925;BME280;21130;51.728;8.748;2023-01-29T09:24:42;101559.03;;;-1.55;100.00
34925;BME280;21130;51.728;8.748;2023-01-29T09:27:09;101566.19;;;-1.54;100.00
34925;BME280;21130;51.728;8.748;2023-01-29T09:29:35;101570.22;;;-1.48;100.00
34925;BME280;21130;51.728;8.748;2023-01-29T09:32:02;101578.41;;;-1.48;100.00
34925;BME280;21130;51.728;8.748;2023-01-29T09:34:28;101577.09;;;-1.44;100.00
34925;BME280;21130;51.728;8.748;2023-01-29T09:36:57;101586.00;;;-1.42;100.00
34925;BME280;21130;51.728;8.748;2023-01-29T09:39:24;101580.97;;;-1.37;100.00
34925;BME280;21130;51.728;8.748;2023-01-29T09:41:55;101579.72;;;-1.33;100.00
34925;BME280;21130;51.728;8.748;2023-01-29T09:44:29;101572.56;;;-1.14;100.00
34925;BME280;21130;51.728;8.748;2023-01-29T09:47:01;101567.13;;;-0.95;100.00
34925;BME280;21130;51.728;8.748;2023-01-29T09:49:34;101569.41;;;-0.90;100.00
34925;BME280;21130;51.728;8.748;2023-01-29T09:52:10;101570.69;;;-0.94;100.00
34925;BME280;21130;51.728;8.748;2023-01-29T09:54:47;101559.63;;;-0.83;100.00
34925;BME280;21130;51.728;8.748;2023-01-29T09:57:21;101576.88;;;-0.73;100.00
34925;BME280;21130;51.728;8.748;2023-01-29T09:59:48;101573.84;;;-0.70;100.00
34925;BME280;21130;51.728;8.748;2023-01-29T10:02:26;101582.03;;;-0.70;100.00
34925;BME280;21130;51.728;8.748;2023-01-29T10:05:13;101577.53;;;-0.61;100.00
34925;BME280;21130;51.728;8.748;2023-01-29T10:08:18;101577.00;;;-0.74;100.00
34925;BME280;21130;51.728;8.748;2023-01-29T10:10:49;101577.97;;;-0.56;100.00
34925;BME280;21130;51.728;8.748;2023-01-29T10:13:25;101568.22;;;-0.58;100.00
34925;BME280;21130;51.728;8.748;2023-01-29T10:16:08;101561.59;;;-0.46;100.00
34925;BME280;21130;51.728;8.748;2023-01-29T10:18:51;101548.69;;;-0.44;100.00
34925;BME280;21130;51.728;8.748;2023-01-29T10:21:34;101546.66;;;-0.32;100.00
34925;BME280;21130;51.728;8.748;2023-01-29T10:24:12;101531.25;;;-0.33;100.00
34925;BME280;21130;51.728;8.748;2023-01-29T10:26:42;101537.16;;;-0.38;100.00
34925;BME280;21130;51.728;8.748;2023-01-29T10:29:13;101540.31;;;-0.33;100.00
34925;BME280;21130;51.728;8.748;2023-01-29T10:31:41;101529.34;;;-0.23;100.00
34925;BME280;21130;51.728;8.748;2023-01-29T10:34:13;101532.53;;;-0.28;100.00
34925;BME280;21130;51.728;8.748;2023-01-29T10:36:46;101517.69;;;-0.15;100.00
34925;BME280;21130;51.728;8.748;2023-01-29T10:39:16;101514.38;;;-0.09;100.00
34925;BME280;21130;51.728;8.748;2023-01-29T10:41:52;101505.44;;;-0.02;100.00
34925;BME280;21130;51.728;8.748;2023-01-29T10:44:34;101504.41;;;-0.01;100.00
34925;BME280;21130;51.728;8.748;2023-01-29T10:47:16;101507.41;;;0.06;100.00
34925;BME280;21130;51.728;8.748;2023-01-29T10:50:07;101494.63;;;0.07;100.00
34925;BME280;21130;51.728;8.748;2023-01-29T10:52:48;101486.59;;;0.05;100.00
34925;BME280;21130;51.728;8.748;2023-01-29T10:55:29;101490.19;;;0.06;100.00
34925;BME280;21130;51.728;8.748;2023-01-29T10:58:04;101481.69;;;0.09;100.00
34925;BME280;21130;51.728;8.748;2023-01-29T11:00:37;101479.66;;;0.11;100.00
34925;BME280;21130;51.728;8.748;2023-01-29T11:03:13;101479.34;;;0.14;100.00
34925;BME280;21130;51.728;8.748;2023-01-29T11:05:44;101473.44;;;0.18;100.00
34925;BME280;21130;51.728;8.748;2023-01-29T11:08:17;101480.59;;;0.19;100.00
34925;BME280;21130;51.728;8.748;2023-01-29T11:10:53;101467.28;;;0.16;100.00
34925;BME280;21130;51.728;8.748;2023-01-29T11:13:25;101481.19;;;0.23;100.00
34925;BME280;21130;51.728;8.748;2023-01-29T11:15:54;101474.09;;;0.30;100.00
34925;BME280;21130;51.728;8.748;2023-01-29T11:18:21;101477.91;;;0.37;100.00
34925;BME280;21130;51.728;8.748;2023-01-29T11:21:00;101468.94;;;0.45;100.00
34925;BME280;21130;51.728;8.748;2023-01-29T11:23:28;101459.88;;;0.45;100.00
34925;BME280;21130;51.728;8.748;2023-01-29T11:25:57;101465.91;;;0.48;100.00
34925;BME280;21130;51.728;8.748;2023-01-29T11:28:35;101447.09;;;0.63;100.00
34925;BME280;21130;51.728;8.748;2023-01-29T11:31:02;101444.13;;;0.74;100.00
34925;BME280;21130;51.728;8.748;2023-01-29T11:33:29;101441.72;;;0.71;100.00
34925;BME280;21130;51.728;8.748;2023-01-29T11:35:56;101426.53;;;0.77;100.00
34925;BME280;21130;51.728;8.748;2023-01-29T11:38:24;101418.53;;;0.75;100.00
34925;BME280;21130;51.728;8.748;2023-01-29T11:40:52;101412.50;;;0.72;100.00
34925;BME280;21130;51.728;8.748;2023-01-29T11:43:26;101419.66;;;0.73;100.00
34925;BME280;21130;51.728;8.748;2023-01-29T11:45:55;101421.09;;;0.77;100.00
34925;BME280;21130;51.728;8.748;2023-01-29T11:48:29;101412.75;;;0.78;100.00
34925;BME280;21130;51.728;8.748;2023-01-29T11:50:59;101402.72;;;0.87;100.00
34925;BME280;21130;51.728;8.748;2023-01-29T11:53:33;101407.56;;;0.93;100.00
34925;BME280;21130;51.728;8.748;2023-01-29T11:56:02;101403.47;;;0.97;100.00
34925;BME280;21130;51.728;8.748;2023-01-29T11:58:32;101391.81;;;0.95;100.00
34925;BME280;21130;51.728;8.748;2023-01-29T12:01:00;101390.66;;;0.98;100.00
34925;BME280;21130;51.728;8.748;2023-01-29T12:03:32;101392.84;;;0.94;100.00
34925;BME280;21130;51.728;8.748;2023-01-29T12:06:02;101378.88;;;0.97;100.00
34925;BME280;21130;51.728;8.748;2023-01-29T12:08:33;101372.44;;;1.06;100.00
34925;BME280;21130;51.728;8.748;2023-01-29T12:11:06;101370.03;;;1.03;100.00
34925;BME280;21130;51.728;8.748;2023-01-29T12:13:35;101371.25;;;1.09;100.00
34925;BME280;21130;51.728;8.748;2023-01-29T12:16:18;101369.22;;;1.11;100.00
34925;BME280;21130;51.728;8.748;2023-01-29T12:18:50;101370.03;;;1.03;100.00
34925;BME280;21130;51.728;8.748;2023-01-29T12:21:27;101362.47;;;0.97;100.00
34925;BME280;21130;51.728;8.748;2023-01-29T12:24:00;101358.38;;;0.93;100.00
34925;BME280;21130;51.728;8.748;2023-01-29T12:26:32;101358.19;;;0.95;100.00
34925;BME280;21130;51.728;8.748;2023-01-29T12:29:15;101344.69;;;0.93;100.00
34925;BME280;21130;51.728;8.748;2023-01-29T12:31:49;101342.16;;;1.00;100.00
34925;BME280;21130;51.728;8.748;2023-01-29T12:34:22;101330.69;;;0.96;100.00
34925;BME280;21130;51.728;8.748;2023-01-29T12:36:54;101328.34;;;1.01;100.00
34925;BME280;21130;51.728;8.748;2023-01-29T12:39:22;101323.03;;;1.00;100.00
34925;BME280;21130;51.728;8.748;2023-01-29T12:41:52;101314.63;;;0.93;100.00
34925;BME280;21130;51.728;8.748;2023-01-29T12:44:26;101306.81;;;0.98;100.00
34925;BME280;21130;51.728;8.748;2023-01-29T12:46:59;101310.75;;;1.04;100.00
34925;BME280;21130;51.728;8.748;2023-01-29T12:49:31;101306.47;;;1.01;100.00
34925;BME280;21130;51.728;8.748;2023-01-29T12:52:03;101297.56;;;0.99;100.00
34925;BME280;21130;51.728;8.748;2023-01-29T12:54:36;101298.59;;;0.98;100.00
34925;BME280;21130;51.728;8.748;2023-01-29T12:57:08;101303.03;;;0.99;100.00
34925;BME280;21130;51.728;8.748;2023-01-29T12:59:43;101295.00;;;0.98;100.00
34925;BME280;21130;51.728;8.748;2023-01-29T13:02:18;101289.00;;;0.94;100.00